sensor_id;sensor_type;location;lat;lon;timestamp;temperature;humidity
20233;DHT22;37438;55.674;13.074;2022-11-15T00:03:01;8.70;99.90
20233;DHT22;37438;55.674;13.074;2022-11-15T00:06:24;8.70;99.90
20233;DHT22;37438;55.674;13.074;2022-11-15T00:09:48;8.70;99.90
20233;DHT22;37438;55.674;13.074;2022-11-15T00:13:12;8.80;99.90
20233;DHT22;37438;55.674;13.074;2022-11-15T00:16:35;8.80;99.90
20233;DHT22;37438;55.674;13.074;2022-11-15T00:19:58;8.80;99.90
20233;DHT22;37438;55.674;13.074;2022-11-15T00:23:22;8.80;99.90
20233;DHT22;37438;55.674;13.074;2022-11-15T00:26:45;8.80;99.90
20233;DHT22;37438;55.674;13.074;2022-11-15T00:30:09;8.80;99.90
20233;DHT22;37438;55.674;13.074;2022-11-15T00:33:32;8.80;99.90
20233;DHT22;37438;55.674;13.074;2022-11-15T00:36:57;8.80;99.90
20233;DHT22;37438;55.674;13.074;2022-11-15T00:40:20;8.80;99.90
20233;DHT22;37438;55.674;13.074;2022-11-15T00:43:44;8.80;99.90
20233;DHT22;37438;55.674;13.074;2022-11-15T00:47:07;8.80;99.90
20233;DHT22;37438;55.674;13.074;2022-11-15T00:50:30;8.80;99.90
20233;DHT22;37438;55.674;13.074;2022-11-15T00:53:53;8.90;99.90
20233;DHT22;37438;55.674;13.074;2022-11-15T00:57:17;8.80;99.90
20233;DHT22;37438;55.674;13.074;2022-11-15T01:00:40;8.90;99.90
20233;DHT22;37438;55.674;13.074;2022-11-15T01:04:03;8.90;99.90
20233;DHT22;37438;55.674;13.074;2022-11-15T01:07:27;8.90;99.90
20233;DHT22;37438;55.674;13.074;2022-11-15T01:10:50;8.90;99.90
20233;DHT22;37438;55.674;13.074;2022-11-15T01:14:14;8.90;99.90
20233;DHT22;37438;55.674;13.074;2022-11-15T01:17:37;8.90;99.90
20233;DHT22;37438;55.674;13.074;2022-11-15T01:21:05;8.90;99.90
20233;DHT22;37438;55.674;13.074;2022-11-15T01:24:28;8.90;99.90
20233;DHT22;37438;55.674;13.074;2022-11-15T01:27:51;8.90;99.90
20233;DHT22;37438;55.674;13.074;2022-11-15T01:31:17;8.90;99.90
20233;DHT22;37438;55.674;13.074;2022-11-15T01:34:41;9.00;99.90
20233;DHT22;37438;55.674;13.074;2022-11-15T01:38:04;8.90;99.90
20233;DHT22;37438;55.674;13.074;2022-11-15T01:41:32;8.90;99.90
20233;DHT22;37438;55.674;13.074;2022-11-15T01:44:55;8.90;99.90
20233;DHT22;37438;55.674;13.074;2022-11-15T01:48:19;8.90;99.90
20233;DHT22;37438;55.674;13.074;2022-11-15T01:51:43;8.80;99.90
20233;DHT22;37438;55.674;13.074;2022-11-15T01:55:11;8.90;99.90
20233;DHT22;37438;55.674;13.074;2022-11-15T01:58:36;8.80;99.90
20233;DHT22;37438;55.674;13.074;2022-11-15T02:02:00;8.80;99.90
20233;DHT22;37438;55.674;13.074;2022-11-15T02:05:23;8.80;99.90
20233;DHT22;37438;55.674;13.074;2022-11-15T02:08:47;8.80;99.90
20233;DHT22;37438;55.674;13.074;2022-11-15T02:12:12;8.80;99.90
20233;DHT22;37438;55.674;13.074;2022-11-15T02:15:42;8.80;99.90
20233;DHT22;37438;55.674;13.074;2022-11-15T02:41:16;8.70;99.90
20233;DHT22;37438;55.674;13.074;2022-11-15T02:44:44;8.70;99.90
20233;DHT22;37438;55.674;13.074;2022-11-15T02:48:09;8.70;99.90
20233;DHT22;37438;55.674;13.074;2022-11-15T02:51:34;8.70;99.90
20233;DHT22;37438;55.674;13.074;2022-11-15T02:54:59;8.70;99.90
20233;DHT22;37438;55.674;13.074;2022-11-15T03:10:16;8.60;99.90
20233;DHT22;37438;55.674;13.074;2022-11-15T03:18:00;8.60;99.90
20233;DHT22;37438;55.674;13.074;2022-11-15T03:21:24;8.60;99.90
20233;DHT22;37438;55.674;13.074;2022-11-15T03:24:52;8.60;99.90
20233;DHT22;37438;55.674;13.074;2022-11-15T03:28:21;8.60;99.90
20233;DHT22;37438;55.674;13.074;2022-11-15T03:31:50;8.60;99.90
20233;DHT22;37438;55.674;13.074;2022-11-15T03:35:20;8.40;99.90
20233;DHT22;37438;55.674;13.074;2022-11-15T03:38:44;8.50;99.90
20233;DHT22;37438;55.674;13.074;2022-11-15T03:42:27;8.50;99.90
20233;DHT22;37438;55.674;13.074;2022-11-15T03:46:01;8.60;99.90
20233;DHT22;37438;55.674;13.074;2022-11-15T03:49:29;8.50;99.90
20233;DHT22;37438;55.674;13.074;2022-11-15T03:52:56;8.50;99.90
20233;DHT22;37438;55.674;13.074;2022-11-15T03:56:20;8.60;99.90
20233;DHT22;37438;55.674;13.074;2022-11-15T03:59:43;8.50;99.90
20233;DHT22;37438;55.674;13.074;2022-11-15T04:03:07;8.50;99.90
20233;DHT22;37438;55.674;13.074;2022-11-15T04:06:31;8.50;99.90
20233;DHT22;37438;55.674;13.074;2022-11-15T04:09:54;8.50;99.90
20233;DHT22;37438;55.674;13.074;2022-11-15T04:13:26;8.50;99.90
20233;DHT22;37438;55.674;13.074;2022-11-15T04:16:49;8.40;99.90
20233;DHT22;37438;55.674;13.074;2022-11-15T04:20:24;8.50;99.90
20233;DHT22;37438;55.674;13.074;2022-11-15T04:24:06;8.50;99.90
20233;DHT22;37438;55.674;13.074;2022-11-15T04:27:35;8.50;99.90
20233;DHT22;37438;55.674;13.074;2022-11-15T04:30:59;8.50;99.90
20233;DHT22;37438;55.674;13.074;2022-11-15T04:34:22;8.50;99.90
20233;DHT22;37438;55.674;13.074;2022-11-15T04:37:45;8.50;99.90
20233;DHT22;37438;55.674;13.074;2022-11-15T04:41:11;8.50;99.90
20233;DHT22;37438;55.674;13.074;2022-11-15T04:44:34;8.50;99.90
20233;DHT22;37438;55.674;13.074;2022-11-15T04:47:57;8.50;99.90
20233;DHT22;37438;55.674;13.074;2022-11-15T04:51:21;8.50;99.90
20233;DHT22;37438;55.674;13.074;2022-11-15T04:54:44;8.40;99.90
20233;DHT22;37438;55.674;13.074;2022-11-15T04:58:09;8.40;99.90
20233;DHT22;37438;55.674;13.074;2022-11-15T05:01:32;8.40;99.90
20233;DHT22;37438;55.674;13.074;2022-11-15T05:04:55;8.40;99.90
20233;DHT22;37438;55.674;13.074;2022-11-15T05:08:19;8.40;99.90
20233;DHT22;37438;55.674;13.074;2022-11-15T05:11:42;8.50;99.90
20233;DHT22;37438;55.674;13.074;2022-11-15T05:15:06;8.40;99.90
20233;DHT22;37438;55.674;13.074;2022-11-15T05:18:29;8.40;99.90
20233;DHT22;37438;55.674;13.074;2022-11-15T05:21:53;8.50;99.90
20233;DHT22;37438;55.674;13.074;2022-11-15T05:25:16;8.50;99.90
20233;DHT22;37438;55.674;13.074;2022-11-15T05:28:39;8.40;99.90
20233;DHT22;37438;55.674;13.074;2022-11-15T05:32:05;8.60;99.90
20233;DHT22;37438;55.674;13.074;2022-11-15T05:35:38;8.50;99.90
20233;DHT22;37438;55.674;13.074;2022-11-15T05:39:04;8.50;99.90
20233;DHT22;37438;55.674;13.074;2022-11-15T05:42:28;8.50;99.90
20233;DHT22;37438;55.674;13.074;2022-11-15T05:45:52;8.50;99.90
20233;DHT22;37438;55.674;13.074;2022-11-15T05:49:19;8.50;99.90
20233;DHT22;37438;55.674;13.074;2022-11-15T05:52:44;8.50;99.90
20233;DHT22;37438;55.674;13.074;2022-11-15T05:56:09;8.50;99.90
20233;DHT22;37438;55.674;13.074;2022-11-15T05:59:33;8.50;99.90
20233;DHT22;37438;55.674;13.074;2022-11-15T06:02:57;8.60;99.90
20233;DHT22;37438;55.674;13.074;2022-11-15T06:06:20;8.50;99.90
20233;DHT22;37438;55.674;13.074;2022-11-15T06:09:43;8.50;99.90
20233;DHT22;37438;55.674;13.074;2022-11-15T06:13:07;8.50;99.90
20233;DHT22;37438;55.674;13.074;2022-11-15T06:16:30;8.50;99.90
20233;DHT22;37438;55.674;13.074;2022-11-15T06:19:53;8.50;99.90
20233;DHT22;37438;55.674;13.074;2022-11-15T06:23:16;8.50;99.90
20233;DHT22;37438;55.674;13.074;2022-11-15T06:26:39;8.50;99.90
20233;DHT22;37438;55.674;13.074;2022-11-15T06:30:03;8.60;99.90
20233;DHT22;37438;55.674;13.074;2022-11-15T06:33:26;8.50;99.90
20233;DHT22;37438;55.674;13.074;2022-11-15T06:36:50;8.50;99.90
20233;DHT22;37438;55.674;13.074;2022-11-15T06:40:13;8.60;99.90
20233;DHT22;37438;55.674;13.074;2022-11-15T06:43:37;8.60;99.90
20233;DHT22;37438;55.674;13.074;2022-11-15T06:47:00;8.60;99.90
20233;DHT22;37438;55.674;13.074;2022-11-15T06:50:24;8.60;99.90
20233;DHT22;37438;55.674;13.074;2022-11-15T06:53:47;8.60;99.90
20233;DHT22;37438;55.674;13.074;2022-11-15T06:57:11;8.60;99.90
20233;DHT22;37438;55.674;13.074;2022-11-15T07:00:34;8.60;99.90
20233;DHT22;37438;55.674;13.074;2022-11-15T07:03:57;8.60;99.90
20233;DHT22;37438;55.674;13.074;2022-11-15T07:07:21;8.60;99.90
20233;DHT22;37438;55.674;13.074;2022-11-15T07:10:44;8.60;99.90
20233;DHT22;37438;55.674;13.074;2022-11-15T07:14:07;8.60;99.90
20233;DHT22;37438;55.674;13.074;2022-11-15T07:17:31;8.60;99.90
20233;DHT22;37438;55.674;13.074;2022-11-15T07:20:55;8.70;99.90
20233;DHT22;37438;55.674;13.074;2022-11-15T07:24:18;8.60;99.90
20233;DHT22;37438;55.674;13.074;2022-11-15T07:27:41;8.60;99.90
20233;DHT22;37438;55.674;13.074;2022-11-15T07:31:07;8.60;99.90
20233;DHT22;37438;55.674;13.074;2022-11-15T07:34:31;8.60;99.90
20233;DHT22;37438;55.674;13.074;2022-11-15T07:38:02;8.60;99.90
20233;DHT22;37438;55.674;13.074;2022-11-15T07:41:25;8.70;99.90
20233;DHT22;37438;55.674;13.074;2022-11-15T07:44:48;8.70;99.90
20233;DHT22;37438;55.674;13.074;2022-11-15T07:48:14;8.70;99.90
20233;DHT22;37438;55.674;13.074;2022-11-15T07:51:38;8.70;99.90
20233;DHT22;37438;55.674;13.074;2022-11-15T07:55:01;8.70;99.90
20233;DHT22;37438;55.674;13.074;2022-11-15T07:58:25;8.70;99.90
20233;DHT22;37438;55.674;13.074;2022-11-15T08:01:48;8.70;99.90
20233;DHT22;37438;55.674;13.074;2022-11-15T08:05:12;8.70;99.90
20233;DHT22;37438;55.674;13.074;2022-11-15T08:08:35;8.80;99.90
20233;DHT22;37438;55.674;13.074;2022-11-15T08:11:58;8.70;99.90
20233;DHT22;37438;55.674;13.074;2022-11-15T08:15:22;8.80;99.90
20233;DHT22;37438;55.674;13.074;2022-11-15T08:18:45;8.80;99.90
20233;DHT22;37438;55.674;13.074;2022-11-15T08:22:09;8.80;99.90
20233;DHT22;37438;55.674;13.074;2022-11-15T08:25:34;8.80;99.90
20233;DHT22;37438;55.674;13.074;2022-11-15T08:28:57;8.80;99.90
20233;DHT22;37438;55.674;13.074;2022-11-15T08:32:20;8.90;99.90
20233;DHT22;37438;55.674;13.074;2022-11-15T08:35:44;8.90;99.90
20233;DHT22;37438;55.674;13.074;2022-11-15T08:39:10;8.90;99.90
20233;DHT22;37438;55.674;13.074;2022-11-15T08:42:35;8.90;99.90
20233;DHT22;37438;55.674;13.074;2022-11-15T08:45:59;8.90;99.90
20233;DHT22;37438;55.674;13.074;2022-11-15T08:49:22;9.00;99.90
20233;DHT22;37438;55.674;13.074;2022-11-15T08:52:46;9.00;99.90
20233;DHT22;37438;55.674;13.074;2022-11-15T08:56:13;9.00;99.90
20233;DHT22;37438;55.674;13.074;2022-11-15T08:59:36;9.00;99.90
20233;DHT22;37438;55.674;13.074;2022-11-15T09:03:03;9.00;99.90
20233;DHT22;37438;55.674;13.074;2022-11-15T09:06:27;9.10;99.90
20233;DHT22;37438;55.674;13.074;2022-11-15T09:09:50;9.10;99.90
20233;DHT22;37438;55.674;13.074;2022-11-15T09:13:14;9.10;99.90
20233;DHT22;37438;55.674;13.074;2022-11-15T09:16:38;9.10;99.90
20233;DHT22;37438;55.674;13.074;2022-11-15T09:20:02;9.10;99.90
20233;DHT22;37438;55.674;13.074;2022-11-15T09:23:26;9.20;99.90
20233;DHT22;37438;55.674;13.074;2022-11-15T09:26:50;9.20;99.90
20233;DHT22;37438;55.674;13.074;2022-11-15T09:30:14;9.20;99.90
20233;DHT22;37438;55.674;13.074;2022-11-15T09:33:37;9.20;99.90
20233;DHT22;37438;55.674;13.074;2022-11-15T09:37:00;9.30;99.90
20233;DHT22;37438;55.674;13.074;2022-11-15T09:40:24;9.20;99.90
20233;DHT22;37438;55.674;13.074;2022-11-15T09:51:04;9.30;99.90
20233;DHT22;37438;55.674;13.074;2022-11-15T09:57:52;9.30;99.90
20233;DHT22;37438;55.674;13.074;2022-11-15T10:01:00;9.30;99.90
20233;DHT22;37438;55.674;13.074;2022-11-15T10:04:07;9.30;99.90
20233;DHT22;37438;55.674;13.074;2022-11-15T10:10:46;9.30;99.90
20233;DHT22;37438;55.674;13.074;2022-11-15T10:13:55;9.30;99.90
20233;DHT22;37438;55.674;13.074;2022-11-15T10:17:34;9.30;99.90
20233;DHT22;37438;55.674;13.074;2022-11-15T10:20:51;9.40;99.90
20233;DHT22;37438;55.674;13.074;2022-11-15T10:23:58;9.40;99.90
20233;DHT22;37438;55.674;13.074;2022-11-15T10:27:15;9.40;99.90
20233;DHT22;37438;55.674;13.074;2022-11-15T10:30:20;9.40;99.90
20233;DHT22;37438;55.674;13.074;2022-11-15T10:36:29;9.40;99.90
20233;DHT22;37438;55.674;13.074;2022-11-15T10:39:33;9.40;99.90
20233;DHT22;37438;55.674;13.074;2022-11-15T10:42:38;9.50;99.90
20233;DHT22;37438;55.674;13.074;2022-11-15T10:45:43;9.50;99.90
20233;DHT22;37438;55.674;13.074;2022-11-15T10:48:47;9.50;99.90
20233;DHT22;37438;55.674;13.074;2022-11-15T10:58:38;9.50;99.90
20233;DHT22;37438;55.674;13.074;2022-11-15T11:01:47;9.50;99.90
20233;DHT22;37438;55.674;13.074;2022-11-15T11:04:52;9.50;99.90
20233;DHT22;37438;55.674;13.074;2022-11-15T11:08:03;9.60;99.90
20233;DHT22;37438;55.674;13.074;2022-11-15T11:11:07;9.50;99.90
20233;DHT22;37438;55.674;13.074;2022-11-15T11:14:24;9.50;99.90
20233;DHT22;37438;55.674;13.074;2022-11-15T11:21:15;9.60;99.90
20233;DHT22;37438;55.674;13.074;2022-11-15T11:31:33;9.60;99.90
20233;DHT22;37438;55.674;13.074;2022-11-15T11:35:08;9.60;99.90
20233;DHT22;37438;55.674;13.074;2022-11-15T11:42:03;9.60;99.90
20233;DHT22;37438;55.674;13.074;2022-11-15T11:48:44;9.70;99.90
20233;DHT22;37438;55.674;13.074;2022-11-15T11:55:24;9.70;99.90
20233;DHT22;37438;55.674;13.074;2022-11-15T11:58:42;9.70;99.90
20233;DHT22;37438;55.674;13.074;2022-11-15T12:01:48;9.70;99.90
20233;DHT22;37438;55.674;13.074;2022-11-15T12:05:01;9.70;99.90
20233;DHT22;37438;55.674;13.074;2022-11-15T12:18:15;9.70;99.90
20233;DHT22;37438;55.674;13.074;2022-11-15T12:21:46;9.70;99.90
20233;DHT22;37438;55.674;13.074;2022-11-15T12:31:38;9.80;99.90
20233;DHT22;37438;55.674;13.074;2022-11-15T12:34:45;9.80;99.90
20233;DHT22;37438;55.674;13.074;2022-11-15T12:37:52;9.80;99.90
20233;DHT22;37438;55.674;13.074;2022-11-15T12:47:34;9.80;99.90
20233;DHT22;37438;55.674;13.074;2022-11-15T12:53:58;9.90;99.90
20233;DHT22;37438;55.674;13.074;2022-11-15T13:03:21;9.80;99.90
20233;DHT22;37438;55.674;13.074;2022-11-15T13:06:41;9.80;99.90
20233;DHT22;37438;55.674;13.074;2022-11-15T13:12:52;9.80;99.90
20233;DHT22;37438;55.674;13.074;2022-11-15T13:16:01;9.70;99.90
20233;DHT22;37438;55.674;13.074;2022-11-15T13:19:10;9.70;99.90
20233;DHT22;37438;55.674;13.074;2022-11-15T13:22:15;9.70;99.90
20233;DHT22;37438;55.674;13.074;2022-11-15T13:29:18;9.70;99.90
20233;DHT22;37438;55.674;13.074;2022-11-15T13:32:22;9.60;99.90
20233;DHT22;37438;55.674;13.074;2022-11-15T13:35:38;9.70;99.90
20233;DHT22;37438;55.674;13.074;2022-11-15T13:38:43;9.70;99.90
20233;DHT22;37438;55.674;13.074;2022-11-15T13:41:50;9.60;99.90
20233;DHT22;37438;55.674;13.074;2022-11-15T13:44:59;9.60;99.90
20233;DHT22;37438;55.674;13.074;2022-11-15T13:48:04;9.60;99.90
20233;DHT22;37438;55.674;13.074;2022-11-15T13:51:23;9.60;99.90
20233;DHT22;37438;55.674;13.074;2022-11-15T13:54:40;9.60;99.90
20233;DHT22;37438;55.674;13.074;2022-11-15T13:57:59;9.60;99.90
20233;DHT22;37438;55.674;13.074;2022-11-15T14:01:05;9.60;99.90
20233;DHT22;37438;55.674;13.074;2022-11-15T14:04:13;9.60;99.90
20233;DHT22;37438;55.674;13.074;2022-11-15T14:07:21;9.50;99.90
20233;DHT22;37438;55.674;13.074;2022-11-15T14:10:36;9.50;99.90
20233;DHT22;37438;55.674;13.074;2022-11-15T14:13:42;9.50;99.90
20233;DHT22;37438;55.674;13.074;2022-11-15T14:17:03;9.50;99.90
20233;DHT22;37438;55.674;13.074;2022-11-15T14:23:26;9.50;99.90
20233;DHT22;37438;55.674;13.074;2022-11-15T14:26:33;9.50;99.90
20233;DHT22;37438;55.674;13.074;2022-11-15T14:29:38;9.40;99.90
20233;DHT22;37438;55.674;13.074;2022-11-15T14:32:47;9.50;99.90
20233;DHT22;37438;55.674;13.074;2022-11-15T14:35:52;9.50;99.90
20233;DHT22;37438;55.674;13.074;2022-11-15T14:38:56;9.40;99.90
20233;DHT22;37438;55.674;13.074;2022-11-15T14:42:01;9.40;99.90
20233;DHT22;37438;55.674;13.074;2022-11-15T14:45:17;9.50;99.90
20233;DHT22;37438;55.674;13.074;2022-11-15T14:48:22;9.40;99.90
20233;DHT22;37438;55.674;13.074;2022-11-15T14:51:27;9.40;99.90
20233;DHT22;37438;55.674;13.074;2022-11-15T14:54:31;9.50;99.90
20233;DHT22;37438;55.674;13.074;2022-11-15T14:57:35;9.40;99.90
20233;DHT22;37438;55.674;13.074;2022-11-15T15:00:41;9.40;99.90
20233;DHT22;37438;55.674;13.074;2022-11-15T15:03:45;9.40;99.90
20233;DHT22;37438;55.674;13.074;2022-11-15T15:06:49;9.40;99.90
20233;DHT22;37438;55.674;13.074;2022-11-15T15:09:54;9.40;99.90
20233;DHT22;37438;55.674;13.074;2022-11-15T15:13:22;9.40;99.90
20233;DHT22;37438;55.674;13.074;2022-11-15T15:16:27;9.40;99.90
20233;DHT22;37438;55.674;13.074;2022-11-15T15:19:31;9.50;99.90
20233;DHT22;37438;55.674;13.074;2022-11-15T15:22:36;9.40;99.90
20233;DHT22;37438;55.674;13.074;2022-11-15T15:25:41;9.40;99.90
20233;DHT22;37438;55.674;13.074;2022-11-15T15:28:46;9.40;99.90
20233;DHT22;37438;55.674;13.074;2022-11-15T15:31:52;9.30;99.90
20233;DHT22;37438;55.674;13.074;2022-11-15T15:34:57;9.30;99.90
20233;DHT22;37438;55.674;13.074;2022-11-15T15:38:01;9.40;99.90
20233;DHT22;37438;55.674;13.074;2022-11-15T15:41:12;9.40;99.90
20233;DHT22;37438;55.674;13.074;2022-11-15T15:44:17;9.40;99.90
20233;DHT22;37438;55.674;13.074;2022-11-15T15:47:22;9.40;99.90
20233;DHT22;37438;55.674;13.074;2022-11-15T15:50:29;9.40;99.90
20233;DHT22;37438;55.674;13.074;2022-11-15T15:53:34;9.40;99.90
20233;DHT22;37438;55.674;13.074;2022-11-15T15:56:38;9.40;99.90
20233;DHT22;37438;55.674;13.074;2022-11-15T15:59:42;9.40;99.90
20233;DHT22;37438;55.674;13.074;2022-11-15T16:02:47;9.40;99.90
20233;DHT22;37438;55.674;13.074;2022-11-15T16:05:51;9.30;99.90
20233;DHT22;37438;55.674;13.074;2022-11-15T16:08:56;9.30;99.90
20233;DHT22;37438;55.674;13.074;2022-11-15T16:12:18;9.30;99.90
20233;DHT22;37438;55.674;13.074;2022-11-15T16:15:25;9.30;99.90
20233;DHT22;37438;55.674;13.074;2022-11-15T16:18:30;9.30;99.90
20233;DHT22;37438;55.674;13.074;2022-11-15T16:21:36;9.30;99.90
20233;DHT22;37438;55.674;13.074;2022-11-15T16:24:40;9.30;99.90
20233;DHT22;37438;55.674;13.074;2022-11-15T16:27:45;9.30;99.90
20233;DHT22;37438;55.674;13.074;2022-11-15T16:34:03;9.30;99.90
20233;DHT22;37438;55.674;13.074;2022-11-15T16:37:22;9.30;99.90
20233;DHT22;37438;55.674;13.074;2022-11-15T16:40:32;9.30;99.90
20233;DHT22;37438;55.674;13.074;2022-11-15T16:43:36;9.30;99.90
20233;DHT22;37438;55.674;13.074;2022-11-15T16:46:42;9.30;99.90
20233;DHT22;37438;55.674;13.074;2022-11-15T16:49:46;9.30;99.90
20233;DHT22;37438;55.674;13.074;2022-11-15T16:52:58;9.30;99.90
20233;DHT22;37438;55.674;13.074;2022-11-15T16:56:03;9.30;99.90
20233;DHT22;37438;55.674;13.074;2022-11-15T16:59:13;9.30;99.90
20233;DHT22;37438;55.674;13.074;2022-11-15T17:02:18;9.30;99.90
20233;DHT22;37438;55.674;13.074;2022-11-15T17:05:23;9.30;99.90
20233;DHT22;37438;55.674;13.074;2022-11-15T17:08:30;9.30;99.90
20233;DHT22;37438;55.674;13.074;2022-11-15T17:11:35;9.30;99.90
20233;DHT22;37438;55.674;13.074;2022-11-15T17:14:39;9.30;99.90
20233;DHT22;37438;55.674;13.074;2022-11-15T17:17:44;9.30;99.90
20233;DHT22;37438;55.674;13.074;2022-11-15T17:20:54;9.30;99.90
20233;DHT22;37438;55.674;13.074;2022-11-15T17:23:58;9.30;99.90
20233;DHT22;37438;55.674;13.074;2022-11-15T17:27:03;9.30;99.90
20233;DHT22;37438;55.674;13.074;2022-11-15T17:30:08;9.30;99.90
20233;DHT22;37438;55.674;13.074;2022-11-15T17:33:13;9.30;99.90
20233;DHT22;37438;55.674;13.074;2022-11-15T17:36:18;9.20;99.90
20233;DHT22;37438;55.674;13.074;2022-11-15T17:39:22;9.20;99.90
20233;DHT22;37438;55.674;13.074;2022-11-15T17:42:28;9.10;99.90
20233;DHT22;37438;55.674;13.074;2022-11-15T17:45:32;9.10;99.90
20233;DHT22;37438;55.674;13.074;2022-11-15T17:48:37;9.00;99.90
20233;DHT22;37438;55.674;13.074;2022-11-15T17:51:42;9.00;99.90
20233;DHT22;37438;55.674;13.074;2022-11-15T17:54:52;8.90;99.90
20233;DHT22;37438;55.674;13.074;2022-11-15T17:57:57;8.90;99.90
20233;DHT22;37438;55.674;13.074;2022-11-15T18:04:10;8.80;99.90
20233;DHT22;37438;55.674;13.074;2022-11-15T18:07:18;8.80;99.90
20233;DHT22;37438;55.674;13.074;2022-11-15T18:10:22;8.80;99.90
20233;DHT22;37438;55.674;13.074;2022-11-15T18:13:26;8.60;99.90
20233;DHT22;37438;55.674;13.074;2022-11-15T18:16:33;8.70;99.90
20233;DHT22;37438;55.674;13.074;2022-11-15T18:19:37;8.70;99.90
20233;DHT22;37438;55.674;13.074;2022-11-15T18:22:41;8.60;99.90
20233;DHT22;37438;55.674;13.074;2022-11-15T18:25:50;8.70;99.90
20233;DHT22;37438;55.674;13.074;2022-11-15T18:29:02;8.70;99.90
20233;DHT22;37438;55.674;13.074;2022-11-15T18:32:07;8.70;99.90
20233;DHT22;37438;55.674;13.074;2022-11-15T18:35:15;8.70;99.90
20233;DHT22;37438;55.674;13.074;2022-11-15T18:38:20;8.70;99.90
20233;DHT22;37438;55.674;13.074;2022-11-15T18:41:25;8.70;99.90
20233;DHT22;37438;55.674;13.074;2022-11-15T18:44:31;8.70;99.90
20233;DHT22;37438;55.674;13.074;2022-11-15T18:47:36;8.80;99.90
20233;DHT22;37438;55.674;13.074;2022-11-15T18:50:41;8.70;99.90
20233;DHT22;37438;55.674;13.074;2022-11-15T18:53:45;8.70;99.90
20233;DHT22;37438;55.674;13.074;2022-11-15T18:56:50;8.80;99.90
20233;DHT22;37438;55.674;13.074;2022-11-15T18:59:54;8.80;99.90
20233;DHT22;37438;55.674;13.074;2022-11-15T19:02:59;8.80;99.90
20233;DHT22;37438;55.674;13.074;2022-11-15T19:06:09;8.80;99.90
20233;DHT22;37438;55.674;13.074;2022-11-15T19:09:15;8.80;99.90
20233;DHT22;37438;55.674;13.074;2022-11-15T19:12:20;8.80;99.90
20233;DHT22;37438;55.674;13.074;2022-11-15T19:15:25;8.80;99.90
20233;DHT22;37438;55.674;13.074;2022-11-15T19:18:31;8.80;99.90
20233;DHT22;37438;55.674;13.074;2022-11-15T19:21:35;8.80;99.90
20233;DHT22;37438;55.674;13.074;2022-11-15T19:24:40;8.80;99.90
20233;DHT22;37438;55.674;13.074;2022-11-15T19:27:44;8.80;99.90
20233;DHT22;37438;55.674;13.074;2022-11-15T19:30:49;8.80;99.90
20233;DHT22;37438;55.674;13.074;2022-11-15T19:33:54;8.80;99.90
20233;DHT22;37438;55.674;13.074;2022-11-15T19:36:59;8.80;99.90
20233;DHT22;37438;55.674;13.074;2022-11-15T19:40:03;8.80;99.90
20233;DHT22;37438;55.674;13.074;2022-11-15T19:43:09;8.80;99.90
20233;DHT22;37438;55.674;13.074;2022-11-15T19:46:14;8.80;99.90
20233;DHT22;37438;55.674;13.074;2022-11-15T19:49:18;8.80;99.90
20233;DHT22;37438;55.674;13.074;2022-11-15T19:52:24;8.70;99.90
20233;DHT22;37438;55.674;13.074;2022-11-15T19:55:28;8.80;99.90
20233;DHT22;37438;55.674;13.074;2022-11-15T19:58:33;8.80;99.90
20233;DHT22;37438;55.674;13.074;2022-11-15T20:01:37;8.80;99.90
20233;DHT22;37438;55.674;13.074;2022-11-15T20:04:42;8.80;99.90
20233;DHT22;37438;55.674;13.074;2022-11-15T20:07:47;8.80;99.90
20233;DHT22;37438;55.674;13.074;2022-11-15T20:10:52;8.80;99.90
20233;DHT22;37438;55.674;13.074;2022-11-15T20:13:58;8.80;99.90
20233;DHT22;37438;55.674;13.074;2022-11-15T20:17:03;8.80;99.90
20233;DHT22;37438;55.674;13.074;2022-11-15T20:20:07;8.80;99.90
20233;DHT22;37438;55.674;13.074;2022-11-15T20:23:12;8.80;99.90
20233;DHT22;37438;55.674;13.074;2022-11-15T20:26:18;8.80;99.90
20233;DHT22;37438;55.674;13.074;2022-11-15T20:29:23;8.90;99.90
20233;DHT22;37438;55.674;13.074;2022-11-15T20:32:27;8.80;99.90
20233;DHT22;37438;55.674;13.074;2022-11-15T20:35:33;8.70;99.90
20233;DHT22;37438;55.674;13.074;2022-11-15T20:38:38;8.70;99.90
20233;DHT22;37438;55.674;13.074;2022-11-15T20:41:42;8.70;99.90
20233;DHT22;37438;55.674;13.074;2022-11-15T20:44:47;8.70;99.90
20233;DHT22;37438;55.674;13.074;2022-11-15T20:47:54;8.70;99.90
20233;DHT22;37438;55.674;13.074;2022-11-15T20:51:05;8.70;99.90
20233;DHT22;37438;55.674;13.074;2022-11-15T20:54:09;8.70;99.90
20233;DHT22;37438;55.674;13.074;2022-11-15T20:57:14;8.70;99.90
20233;DHT22;37438;55.674;13.074;2022-11-15T21:00:18;8.70;99.90
20233;DHT22;37438;55.674;13.074;2022-11-15T21:03:27;8.70;99.90
20233;DHT22;37438;55.674;13.074;2022-11-15T21:06:31;8.70;99.90
20233;DHT22;37438;55.674;13.074;2022-11-15T21:09:36;8.70;99.90
20233;DHT22;37438;55.674;13.074;2022-11-15T21:12:59;8.60;99.90
20233;DHT22;37438;55.674;13.074;2022-11-15T21:16:04;8.70;99.90
20233;DHT22;37438;55.674;13.074;2022-11-15T21:19:10;8.70;99.90
20233;DHT22;37438;55.674;13.074;2022-11-15T21:22:15;8.60;99.90
20233;DHT22;37438;55.674;13.074;2022-11-15T21:25:19;8.60;99.90
20233;DHT22;37438;55.674;13.074;2022-11-15T21:28:23;8.60;99.90
20233;DHT22;37438;55.674;13.074;2022-11-15T21:31:28;8.60;99.90
20233;DHT22;37438;55.674;13.074;2022-11-15T21:34:33;8.70;99.90
20233;DHT22;37438;55.674;13.074;2022-11-15T21:37:38;8.70;99.90
20233;DHT22;37438;55.674;13.074;2022-11-15T21:40:42;8.60;99.90
20233;DHT22;37438;55.674;13.074;2022-11-15T21:43:46;8.60;99.90
20233;DHT22;37438;55.674;13.074;2022-11-15T21:46:51;8.70;99.90
20233;DHT22;37438;55.674;13.074;2022-11-15T21:49:55;8.60;99.90
20233;DHT22;37438;55.674;13.074;2022-11-15T21:53:00;8.60;99.90
20233;DHT22;37438;55.674;13.074;2022-11-15T21:56:04;8.50;99.90
20233;DHT22;37438;55.674;13.074;2022-11-15T21:59:09;8.50;99.90
20233;DHT22;37438;55.674;13.074;2022-11-15T22:02:14;8.50;99.90
20233;DHT22;37438;55.674;13.074;2022-11-15T22:05:18;8.40;99.90
20233;DHT22;37438;55.674;13.074;2022-11-15T22:08:24;8.50;99.90
20233;DHT22;37438;55.674;13.074;2022-11-15T22:11:29;8.40;99.90
20233;DHT22;37438;55.674;13.074;2022-11-15T22:14:34;8.40;99.90
20233;DHT22;37438;55.674;13.074;2022-11-15T22:17:39;8.40;99.90
20233;DHT22;37438;55.674;13.074;2022-11-15T22:21:04;8.40;99.90
20233;DHT22;37438;55.674;13.074;2022-11-15T22:24:09;8.40;99.90
20233;DHT22;37438;55.674;13.074;2022-11-15T22:27:13;8.40;99.90
20233;DHT22;37438;55.674;13.074;2022-11-15T22:30:18;8.40;99.90
20233;DHT22;37438;55.674;13.074;2022-11-15T22:33:24;8.40;99.90
20233;DHT22;37438;55.674;13.074;2022-11-15T22:36:29;8.40;99.90
20233;DHT22;37438;55.674;13.074;2022-11-15T22:39:53;8.40;99.90
20233;DHT22;37438;55.674;13.074;2022-11-15T22:42:58;8.30;99.90